Bhera Weather



Bhera's Current Weather

Temprature 41.462o clear sky

clear sky

Rain: 0 %

Min Temprature41.462o
Max Temprature41.462o
Humidity15
Wind Speed2.5 m/h
Sun Rise05:02:39
Sun Set19:19:21
Current Time: 26-Jun-2019 14:48:46
Lat/Lon: 32.48, 72.91




Bhera's Geo Location



Bhera's Weather Forecast

Time Overall Temp Min Temp Max Temp Humidity Wind Speed Rain
26-Jun-2019 (Wed)
17:00:00 clear sky 41.750 41.750 41.750 14 1.05 m/h 0 %
20:00:00 scattered clouds 39.050 39.047 39.050 18 3.38 m/h 0 %
23:00:00 few clouds 36.540 36.540 36.540 20 1.1 m/h 0 %
27-Jun-2019 (Thu)
02:00:00 clear sky 35.080 35.079 35.080 20 1.34 m/h 0 %
05:00:00 clear sky 33.665 33.665 33.665 21 1.7 m/h 0 %
08:00:00 light rain 35.650 35.650 35.650 22 2.73 m/h 131 %
11:00:00 light rain 40.174 40.174 40.174 16 1.3 m/h 13 %
14:00:00 clear sky 43.050 43.050 43.050 13 2.12 m/h 0 %
17:00:00 clear sky 43.380 43.380 43.380 11 1.71 m/h 0 %
20:00:00 broken clouds 36.094 36.094 36.094 20 3.74 m/h 0 %
23:00:00 scattered clouds 36.435 36.435 36.435 19 1.55 m/h 0 %
28-Jun-2019 (Fri)
02:00:00 clear sky 35.228 35.228 35.228 22 2.08 m/h 0 %
05:00:00 clear sky 34.128 34.128 34.128 23 1.28 m/h 0 %
08:00:00 scattered clouds 37.629 37.629 37.629 20 1.67 m/h 0 %
11:00:00 scattered clouds 41.525 41.525 41.525 14 2.58 m/h 0 %
14:00:00 light rain 43.531 43.531 43.531 14 2.15 m/h 6 %
17:00:00 light rain 43.950 43.950 43.950 12 1.61 m/h 13 %
20:00:00 few clouds 38.050 38.050 38.050 21 0.66 m/h 0 %
23:00:00 few clouds 36.372 36.372 36.372 23 1.22 m/h 0 %
29-Jun-2019 (Sat)
02:00:00 clear sky 35.072 35.072 35.072 25 0.26 m/h 0 %
05:00:00 clear sky 33.469 33.469 33.469 27 0.46 m/h 0 %
08:00:00 clear sky 37.437 37.437 37.437 23 1.93 m/h 0 %
11:00:00 clear sky 41.950 41.950 41.950 18 2.86 m/h 0 %
14:00:00 clear sky 45.150 45.150 45.150 13 3.55 m/h 0 %
17:00:00 clear sky 45.491 45.491 45.491 11 5.44 m/h 0 %
20:00:00 clear sky 40.150 40.150 40.150 16 2.19 m/h 0 %
23:00:00 clear sky 37.550 37.550 37.550 19 1.17 m/h 0 %
30-Jun-2019 (Sun)
02:00:00 clear sky 36.086 36.086 36.086 21 2.38 m/h 0 %
05:00:00 clear sky 34.872 34.872 34.872 22 0.36 m/h 0 %
08:00:00 clear sky 38.462 38.462 38.462 21 2.35 m/h 0 %
11:00:00 clear sky 42.518 42.518 42.518 17 3.51 m/h 0 %
14:00:00 clear sky 45.708 45.708 45.708 14 4.48 m/h 0 %
17:00:00 clear sky 45.950 45.950 45.950 12 5.06 m/h 0 %
20:00:00 clear sky 41.750 41.750 41.750 15 3.12 m/h 0 %
23:00:00 clear sky 37.250 37.250 37.250 21 3.94 m/h 0 %
01-Jul-2019 (Mon)
02:00:00 clear sky 35.150 35.150 35.150 24 1.16 m/h 0 %
05:00:00 clear sky 34.335 34.335 34.335 25 1.71 m/h 0 %
08:00:00 clear sky 38.250 38.250 38.250 24 1.03 m/h 0 %
11:00:00 clear sky 42.950 42.950 42.950 19 1.65 m/h 0 %
14:00:00 clear sky 46.850 46.850 46.850 12 3.73 m/h 0 %


Bhera's Tourist Spots

Historical Places in Bhera

Famous Cities (60)